Time;durP1;ratioP1;P1;durP2;ratioP2;P2;SDS_P1;SDS_P2;PMS_P1;PMS_P2;Temp;Humidity;BMP_temperature;BMP_pressure;BME280_temperature;BME280_humidity;BME280_pressure;Samples;Min_cycle;Max_cycle;Signal;HPM_P1;HPM_P2
2022/08/27 00:00:43;;;;;;;;;;;;;;;25.75;54.22;99258.84;4402245;32;39652;-86
2022/08/27 00:03:11;;;;;;;;;;;;;;;25.51;54.84;99256.59;4321976;32;38164;-86
2022/08/27 00:05:38;;;;;;;;;;;;;;;25.66;53.97;99251.41;4395017;32;38239;-86
2022/08/27 00:08:06;;;;;;;;;;;;;;;25.70;53.68;99255.56;4380364;32;37480;-86
2022/08/27 00:10:34;;;;;;;;;;;;;;;25.49;54.41;99253.19;4387040;32;39102;-86
2022/08/27 00:13:01;;;;;;;;;;;;;;;25.43;54.72;99253.50;4400398;32;37862;-86
2022/08/27 00:15:28;;;;;;;;;;;;;;;25.32;54.84;99253.22;4381621;32;38976;-86
2022/08/27 00:17:56;;;;;;;;;;;;;;;25.42;54.43;99259.72;4396561;32;38034;-86
2022/08/27 00:20:24;;;;;;;;;;;;;;;25.53;53.55;99259.16;4399180;32;38558;-86
2022/08/27 00:22:52;;;;;;;;;;;;;;;25.25;54.94;99265.09;4392191;32;37721;-87
2022/08/27 00:25:19;;;;;;;;;;;;;;;25.37;54.64;99258.28;4386611;32;37027;-86
2022/08/27 00:27:46;;;;;;;;;;;;;;;25.41;54.25;99258.03;4400639;32;38928;-86
2022/08/27 00:30:15;;;;;;;;;;;;;;;25.22;55.02;99259.97;4392463;32;38112;-86
2022/08/27 00:32:43;;;;;;;;;;;;;;;25.16;55.05;99255.00;4384601;32;36735;-87
2022/08/27 00:35:10;;;;;;;;;;;;;;;25.14;55.12;99267.44;4397501;32;39206;-85
2022/08/27 00:37:37;;;;;;;;;;;;;;;25.01;55.42;99265.41;4386624;32;39197;-85
2022/08/27 00:40:12;;;;;;;;;;;;;;;25.21;54.48;99261.75;4352226;32;5002048;-86
2022/08/27 00:42:41;;;;;;;;;;;;;;;24.99;55.09;99259.34;4237058;32;5001848;-86
2022/08/27 00:45:08;;;;;;;;;;;;;;;25.06;54.81;99266.03;4258714;32;5001701;-86
2022/08/27 00:47:38;;;;;;;;;;;;;;;25.09;54.38;99258.88;4406447;32;20026;-86
2022/08/27 00:50:07;;;;;;;;;;;;;;;25.01;54.86;99260.09;4394548;32;37746;-86
2022/08/27 00:52:44;;;;;;;;;;;;;;;25.06;54.72;99260.72;4386540;32;38278;-86
2022/08/27 00:55:13;;;;;;;;;;;;;;;24.91;55.26;99261.53;4402567;32;38061;-86
2022/08/27 00:57:41;;;;;;;;;;;;;;;25.04;54.48;99257.31;4395250;32;38105;-86
2022/08/27 01:00:10;;;;;;;;;;;;;;;24.90;55.06;99270.41;4410738;32;37484;-86
2022/08/27 01:02:38;;;;;;;;;;;;;;;24.83;55.32;99261.09;4409890;32;39238;-86
2022/08/27 01:05:14;;;;;;;;;;;;;;;24.88;54.73;99261.69;4316628;32;10003996;-87
2022/08/27 01:07:42;;;;;;;;;;;;;;;24.77;55.28;99270.19;4381391;32;20077;-86
2022/08/27 01:10:11;;;;;;;;;;;;;;;24.63;55.41;99263.88;4386200;32;37857;-85
2022/08/27 01:12:38;;;;;;;;;;;;;;;24.82;54.71;99267.31;4374022;32;37513;-86
2022/08/27 01:15:07;;;;;;;;;;;;;;;24.63;55.29;99271.84;4400136;32;39281;-87
2022/08/27 01:17:37;;;;;;;;;;;;;;;24.34;56.34;99274.12;4386763;32;37255;-86
2022/08/27 01:20:08;;;;;;;;;;;;;;;24.78;54.64;99281.66;4385465;32;38148;-86
2022/08/27 01:22:49;;;;;;;;;;;;;;;24.74;54.27;99280.94;4379183;32;37916;-86
2022/08/27 01:25:16;;;;;;;;;;;;;;;24.77;54.49;99277.28;4379107;32;39130;-86
2022/08/27 01:27:44;;;;;;;;;;;;;;;24.79;54.62;99278.94;4390583;32;39997;-86
2022/08/27 01:30:13;;;;;;;;;;;;;;;24.81;54.91;99276.19;4386286;32;37705;-86
2022/08/27 01:32:41;;;;;;;;;;;;;;;24.77;54.94;99279.94;4398321;32;40046;-86
2022/08/27 01:35:26;;;;;;;;;;;;;;;24.66;54.59;99282.25;4399764;32;37981;-86
2022/08/27 01:37:54;;;;;;;;;;;;;;;24.48;55.55;99284.91;4400164;32;36752;-86
2022/08/27 01:40:23;;;;;;;;;;;;;;;24.64;54.77;99289.44;4403581;32;39024;-86
2022/08/27 01:42:53;;;;;;;;;;;;;;;24.58;54.94;99280.88;4415254;32;38369;-86
2022/08/27 01:45:25;;;;;;;;;;;;;;;24.53;55.38;99288.16;4412426;32;38426;-85
2022/08/27 01:47:53;;;;;;;;;;;;;;;24.65;54.53;99291.16;4404879;32;36356;-86
2022/08/27 01:50:22;;;;;;;;;;;;;;;24.37;55.79;99281.91;4404780;32;37557;-86
2022/08/27 01:52:49;;;;;;;;;;;;;;;24.45;55.03;99287.72;4400348;32;39177;-86
2022/08/27 01:55:18;;;;;;;;;;;;;;;24.51;54.16;99290.06;4406934;32;38705;-86
2022/08/27 01:57:45;;;;;;;;;;;;;;;24.45;54.90;99290.34;4415201;32;37043;-86
2022/08/27 02:00:15;;;;;;;;;;;;;;;24.58;54.54;99291.44;4415134;32;37942;-87
2022/08/27 02:02:43;;;;;;;;;;;;;;;24.42;54.48;99293.16;4411453;32;38847;-86
2022/08/27 02:05:10;;;;;;;;;;;;;;;24.27;55.52;99286.78;4409239;32;39023;-86
2022/08/27 02:07:38;;;;;;;;;;;;;;;24.38;54.67;99294.22;4414766;32;36681;-86
2022/08/27 02:10:07;;;;;;;;;;;;;;;24.41;54.37;99294.09;4408789;32;37964;-86
2022/08/27 02:12:34;;;;;;;;;;;;;;;24.22;55.29;99288.81;4411815;32;38429;-86
2022/08/27 02:15:01;;;;;;;;;;;;;;;24.16;55.50;99282.97;4414637;32;38353;-85
2022/08/27 02:17:29;;;;;;;;;;;;;;;24.21;55.48;99286.22;4400414;32;36691;-86
2022/08/27 02:19:56;;;;;;;;;;;;;;;24.29;55.25;99292.03;4399922;32;37947;-85
2022/08/27 02:22:23;;;;;;;;;;;;;;;24.12;55.60;99288.41;4385558;32;39141;-86
2022/08/27 02:24:51;;;;;;;;;;;;;;;24.13;55.81;99284.81;4399688;32;38970;-86
2022/08/27 02:27:18;;;;;;;;;;;;;;;24.16;55.46;99277.69;4407383;32;38473;-85
2022/08/27 02:29:46;;;;;;;;;;;;;;;24.09;55.56;99283.28;4399706;32;38024;-86
2022/08/27 02:32:16;;;;;;;;;;;;;;;23.97;55.52;99283.84;4399359;32;38037;-85
2022/08/27 02:34:57;;;;;;;;;;;;;;;24.13;55.53;99276.87;4387016;32;38702;-85
2022/08/27 02:37:25;;;;;;;;;;;;;;;23.85;56.79;99273.84;4385316;32;36283;-86
2022/08/27 02:39:52;;;;;;;;;;;;;;;24.16;55.75;99269.75;4388346;32;38881;-86
2022/08/27 02:42:19;;;;;;;;;;;;;;;24.05;55.76;99276.37;4393906;32;38847;-86
2022/08/27 02:44:47;;;;;;;;;;;;;;;24.10;55.40;99274.41;4407479;32;38438;-86
2022/08/27 02:47:15;;;;;;;;;;;;;;;24.03;55.80;99278.28;4409163;32;36431;-86
2022/08/27 02:49:43;;;;;;;;;;;;;;;23.92;55.77;99280.56;4398104;32;37720;-86
2022/08/27 02:52:11;;;;;;;;;;;;;;;24.03;55.48;99273.00;4385400;32;38813;-86
2022/08/27 02:54:39;;;;;;;;;;;;;;;24.00;55.41;99281.06;4405983;32;38817;-86
2022/08/27 02:57:06;;;;;;;;;;;;;;;23.87;56.11;99282.59;4414258;32;36898;-86
2022/08/27 02:59:34;;;;;;;;;;;;;;;23.99;55.39;99287.25;4413717;32;37833;-86
2022/08/27 03:02:01;;;;;;;;;;;;;;;23.85;55.48;99279.16;4411715;32;38051;-86
2022/08/27 03:04:28;;;;;;;;;;;;;;;23.79;55.57;99280.28;4409280;32;38714;-86
2022/08/27 03:06:56;;;;;;;;;;;;;;;23.85;55.38;99268.56;4406365;32;37708;-86
2022/08/27 03:09:23;;;;;;;;;;;;;;;23.84;55.65;99272.16;4418166;32;37985;-86
2022/08/27 03:11:52;;;;;;;;;;;;;;;23.84;55.53;99272.16;4406291;32;37832;-85
2022/08/27 03:14:19;;;;;;;;;;;;;;;23.94;55.30;99283.16;4402068;32;38690;-86
2022/08/27 03:16:47;;;;;;;;;;;;;;;23.89;55.04;99280.69;4413798;32;37903;-86
2022/08/27 03:19:14;;;;;;;;;;;;;;;23.79;55.46;99279.44;4274268;32;37421;-86
2022/08/27 03:21:50;;;;;;;;;;;;;;;23.75;55.72;99288.44;4388265;32;38122;-86
2022/08/27 03:24:21;;;;;;;;;;;;;;;23.73;55.87;99285.00;4394856;32;38092;-86
2022/08/27 03:26:48;;;;;;;;;;;;;;;23.60;56.17;99279.41;4393288;32;37837;-86
2022/08/27 03:29:20;;;;;;;;;;;;;;;23.62;56.17;99278.41;4392548;32;38850;-86
2022/08/27 03:31:47;;;;;;;;;;;;;;;23.60;56.17;99280.25;4400993;32;38167;-85
2022/08/27 03:34:14;;;;;;;;;;;;;;;23.60;56.30;99280.25;4397990;32;38095;-86
2022/08/27 03:36:47;;;;;;;;;;;;;;;23.73;55.99;99282.34;4392657;32;36439;-86
2022/08/27 03:39:14;;;;;;;;;;;;;;;23.54;56.45;99275.25;4395440;32;38101;-86
2022/08/27 03:41:43;;;;;;;;;;;;;;;23.45;56.59;99286.22;4396245;32;39831;-86
2022/08/27 03:44:22;;;;;;;;;;;;;;;23.49;56.68;99285.19;4400774;32;38908;-86
2022/08/27 03:46:50;;;;;;;;;;;;;;;23.52;56.48;99282.41;4411980;32;37500;-85
2022/08/27 03:49:18;;;;;;;;;;;;;;;23.42;56.81;99287.25;4402566;32;38648;-86
2022/08/27 03:51:51;;;;;;;;;;;;;;;23.35;56.87;99284.94;4410732;32;37955;-86
2022/08/27 03:54:18;;;;;;;;;;;;;;;23.40;56.42;99282.97;4400539;32;39212;-86
2022/08/27 03:56:45;;;;;;;;;;;;;;;23.38;56.59;99287.44;4406104;32;36749;-86
2022/08/27 03:59:14;;;;;;;;;;;;;;;23.39;56.58;99286.53;4396831;32;38670;-86
2022/08/27 04:01:43;;;;;;;;;;;;;;;23.44;56.60;99289.81;4408882;32;38005;-86
2022/08/27 04:04:11;;;;;;;;;;;;;;;23.19;57.57;99290.06;4404684;32;39621;-86
2022/08/27 04:06:39;;;;;;;;;;;;;;;23.48;56.34;99296.66;4416113;32;36504;-85
2022/08/27 04:09:06;;;;;;;;;;;;;;;23.16;57.58;99285.75;4411594;32;37395;-86
2022/08/27 04:11:34;;;;;;;;;;;;;;;23.35;56.91;99292.87;4396258;32;39639;-86
2022/08/27 04:14:05;;;;;;;;;;;;;;;23.15;57.69;99284.06;4397606;32;39661;-86
2022/08/27 04:16:51;;;;;;;;;;;;;;;23.37;56.87;99291.03;4391078;32;36961;-86
2022/08/27 04:19:18;;;;;;;;;;;;;;;23.20;57.55;99290.00;4411504;32;38857;-85
2022/08/27 04:21:51;;;;;;;;;;;;;;;23.28;57.29;99288.78;4396995;32;39769;-85
2022/08/27 04:24:18;;;;;;;;;;;;;;;23.23;57.57;99290.78;4394664;32;38916;-85
2022/08/27 04:26:46;;;;;;;;;;;;;;;23.30;57.27;99289.59;4400363;32;36988;-85
2022/08/27 04:29:14;;;;;;;;;;;;;;;23.32;57.48;99291.22;4399530;32;37987;-86
2022/08/27 04:31:41;;;;;;;;;;;;;;;23.40;57.08;99298.81;4399063;32;37906;-85
2022/08/27 04:34:09;;;;;;;;;;;;;;;23.40;57.21;99293.53;4396560;32;39314;-86
2022/08/27 04:36:39;;;;;;;;;;;;;;;23.39;57.39;99297.97;4386880;32;37083;-85
2022/08/27 04:39:06;;;;;;;;;;;;;;;23.37;57.58;99294.53;4400289;32;37985;-86
2022/08/27 04:41:33;;;;;;;;;;;;;;;23.31;57.71;99288.66;4397649;32;37847;-86
2022/08/27 04:44:02;;;;;;;;;;;;;;;23.48;57.56;99291.38;4392156;32;38390;-87
2022/08/27 04:46:30;;;;;;;;;;;;;;;23.51;57.53;99287.75;4398282;32;37156;-88
2022/08/27 04:48:59;;;;;;;;;;;;;;;23.48;57.77;99296.66;4367001;32;38403;-87
2022/08/27 04:51:27;;;;;;;;;;;;;;;23.57;57.43;99287.47;4396830;32;38842;-86
2022/08/27 04:53:55;;;;;;;;;;;;;;;23.57;57.34;99285.69;4398780;32;39136;-87
2022/08/27 04:56:26;;;;;;;;;;;;;;;23.55;57.48;99292.84;4389072;32;36663;-86
2022/08/27 04:58:53;;;;;;;;;;;;;;;23.50;57.76;99289.53;4399960;32;37678;-86
2022/08/27 05:01:21;;;;;;;;;;;;;;;23.53;58.17;99299.97;4392896;32;38433;-86
2022/08/27 05:03:49;;;;;;;;;;;;;;;23.56;58.34;99289.25;4398418;32;40459;-86
2022/08/27 05:06:16;;;;;;;;;;;;;;;23.69;57.95;99294.88;4390345;32;36556;-86
2022/08/27 05:08:43;;;;;;;;;;;;;;;23.72;57.97;99294.72;4386318;32;37760;-86
2022/08/27 05:11:13;;;;;;;;;;;;;;;23.78;57.94;99298.88;4398647;32;37917;-87
2022/08/27 05:13:41;;;;;;;;;;;;;;;23.81;57.53;99304.03;4399854;32;38798;-87
2022/08/27 05:16:10;;;;;;;;;;;;;;;23.82;57.33;99300.44;4390189;32;36204;-85
2022/08/27 05:18:38;;;;;;;;;;;;;;;23.92;56.88;99296.41;4398948;32;39362;-85
2022/08/27 05:21:18;;;;;;;;;;;;;;;23.91;56.89;99294.72;4399819;32;37243;-85
2022/08/27 05:23:46;;;;;;;;;;;;;;;23.98;57.32;99290.84;4386300;32;38469;-86
2022/08/27 05:26:13;;;;;;;;;;;;;;;23.98;57.36;99301.41;4382774;32;37056;-86
2022/08/27 05:28:41;;;;;;;;;;;;;;;24.10;56.71;99300.84;4393271;32;38844;-86
2022/08/27 05:31:09;;;;;;;;;;;;;;;24.17;55.79;99296.09;4398455;32;38829;-86
2022/08/27 05:33:40;;;;;;;;;;;;;;;24.26;56.48;99289.53;4398381;32;38856;-85
2022/08/27 05:36:07;;;;;;;;;;;;;;;24.38;56.48;99286.28;4377929;32;36778;-85
2022/08/27 05:38:35;;;;;;;;;;;;;;;24.33;56.21;99296.22;4386004;32;37530;-85
2022/08/27 05:41:07;;;;;;;;;;;;;;;24.38;56.04;99294.22;4395842;32;38384;-85
2022/08/27 05:43:35;;;;;;;;;;;;;;;24.51;55.47;99299.78;4393038;32;38414;-85
2022/08/27 05:46:04;;;;;;;;;;;;;;;24.54;55.39;99295.19;4399839;32;36430;-85
2022/08/27 05:48:32;;;;;;;;;;;;;;;24.67;54.87;99294.59;4393204;32;38344;-86
2022/08/27 05:51:06;;;;;;;;;;;;;;;24.66;54.92;99292.84;4377026;32;38368;-85
2022/08/27 05:53:33;;;;;;;;;;;;;;;24.82;54.77;99293.78;4376272;32;38618;-86
2022/08/27 05:56:00;;;;;;;;;;;;;;;24.90;54.97;99296.91;4399905;32;37057;-85
2022/08/27 06:01:16;;;;;;;;;;;;;;;24.93;54.00;99291.44;4399606;32;37908;-85
2022/08/27 06:03:45;;;;;;;;;;;;;;;25.09;53.43;99296.81;4399473;32;38540;-85
2022/08/27 06:06:13;;;;;;;;;;;;;;;25.12;53.45;99295.78;4393909;32;36557;-85
2022/08/27 06:08:40;;;;;;;;;;;;;;;25.23;53.06;99298.75;4397387;32;38704;-85
2022/08/27 06:11:09;;;;;;;;;;;;;;;25.29;53.05;99293.97;4399778;32;39106;-85
2022/08/27 06:13:36;;;;;;;;;;;;;;;25.34;52.87;99295.56;4399479;32;38276;-85
2022/08/27 06:16:05;;;;;;;;;;;;;;;25.41;52.65;99291.63;4393481;32;37453;-85
2022/08/27 06:18:33;;;;;;;;;;;;;;;25.48;52.45;99293.84;4394911;32;38117;-85
2022/08/27 06:21:01;;;;;;;;;;;;;;;25.54;52.20;99297.13;4399147;32;39314;-85
2022/08/27 06:23:28;;;;;;;;;;;;;;;25.66;51.84;99296.47;4387037;32;38935;-84
2022/08/27 06:25:56;;;;;;;;;;;;;;;25.72;51.06;99298.78;4410429;32;36926;-84
2022/08/27 06:28:28;;;;;;;;;;;;;;;25.81;50.41;99306.22;4399182;32;38417;-84
2022/08/27 06:31:02;;;;;;;;;;;;;;;26.02;49.54;99313.94;4410150;32;37999;-83
2022/08/27 06:33:30;;;;;;;;;;;;;;;26.25;49.16;99310.00;4394327;32;39565;-84
2022/08/27 06:35:59;;;;;;;;;;;;;;;26.48;48.98;99317.50;4394492;32;36118;-83
2022/08/27 06:38:26;;;;;;;;;;;;;;;26.92;48.33;99315.84;4393860;32;38509;-83
2022/08/27 06:40:54;;;;;;;;;;;;;;;27.24;47.31;99322.78;4405002;32;38158;-85
2022/08/27 06:43:22;;;;;;;;;;;;;;;27.66;46.29;99323.72;4401294;32;38587;-84
2022/08/27 06:45:51;;;;;;;;;;;;;;;28.02;45.45;99317.06;4397524;32;37624;-83
2022/08/27 06:48:20;;;;;;;;;;;;;;;28.49;44.43;99323.78;4400926;32;38499;-84
2022/08/27 06:50:47;;;;;;;;;;;;;;;28.67;43.19;99317.22;4397522;32;38224;-84
2022/08/27 06:53:15;;;;;;;;;;;;;;;28.96;42.37;99320.56;4380639;32;37608;-84
2022/08/27 06:55:43;;;;;;;;;;;;;;;29.29;41.88;99323.72;4385263;32;36630;-84
2022/08/27 06:58:11;;;;;;;;;;;;;;;29.58;41.25;99319.88;4394418;32;38136;-84
2022/08/27 07:00:38;;;;;;;;;;;;;;;29.69;39.44;99320.97;4392927;32;38321;-83
2022/08/27 07:03:06;;;;;;;;;;;;;;;29.95;38.81;99329.75;4389963;32;39416;-83
2022/08/27 07:05:34;;;;;;;;;;;;;;;30.10;39.95;99326.81;4404048;32;36555;-83
2022/08/27 07:08:02;;;;;;;;;;;;;;;29.89;38.89;99328.38;4403802;32;39334;-84
2022/08/27 07:10:30;;;;;;;;;;;;;;;30.09;39.58;99326.94;4389547;32;38138;-83
2022/08/27 07:12:58;;;;;;;;;;;;;;;30.07;40.15;99332.38;4388574;32;38312;-84
2022/08/27 07:15:26;;;;;;;;;;;;;;;30.23;40.00;99331.31;4389030;32;36597;-83
2022/08/27 07:17:55;;;;;;;;;;;;;;;30.28;38.89;99332.69;4403851;32;39150;-83
2022/08/27 07:20:24;;;;;;;;;;;;;;;30.66;38.22;99336.09;4383888;32;39677;-83
2022/08/27 07:22:53;;;;;;;;;;;;;;;30.49;36.79;99343.56;4400381;32;38632;-83
2022/08/27 07:25:20;;;;;;;;;;;;;;;30.75;38.56;99343.44;4400054;32;36642;-83
2022/08/27 07:27:48;;;;;;;;;;;;;;;30.76;39.39;99345.13;4398005;32;38391;-83
2022/08/27 07:30:15;;;;;;;;;;;;;;;31.08;40.67;99349.88;4403472;32;38457;-83
2022/08/27 07:32:43;;;;;;;;;;;;;;;30.62;39.36;99343.50;4403277;32;39427;-85
2022/08/27 07:35:11;;;;;;;;;;;;;;;30.79;39.86;99345.81;4393807;32;36990;-84
2022/08/27 07:37:39;;;;;;;;;;;;;;;31.02;39.34;99352.06;4403764;32;37892;-85
2022/08/27 07:40:11;;;;;;;;;;;;;;;31.03;40.46;99353.78;4394521;32;37893;-84
2022/08/27 07:45:26;;;;;;;;;;;;;;;31.28;36.21;99351.88;4401467;32;36358;-84
2022/08/27 07:47:53;;;;;;;;;;;;;;;31.54;36.91;99354.38;4393034;32;38870;-83
2022/08/27 07:50:22;;;;;;;;;;;;;;;31.72;33.64;99352.94;4393256;32;39102;-85
2022/08/27 07:52:50;;;;;;;;;;;;;;;31.82;34.92;99351.22;4400313;32;38464;-90
2022/08/27 07:55:17;;;;;;;;;;;;;;;31.91;34.14;99350.50;4400912;32;37469;-88
2022/08/27 07:57:46;;;;;;;;;;;;;;;32.12;33.69;99339.88;4400574;32;38844;-84
2022/08/27 08:00:14;;;;;;;;;;;;;;;32.20;32.41;99344.63;4394964;32;38369;-86
2022/08/27 08:02:43;;;;;;;;;;;;;;;32.63;31.39;99341.09;4396728;32;38058;-86
2022/08/27 08:05:11;;;;;;;;;;;;;;;32.41;34.56;99342.84;4386806;32;36795;-87
2022/08/27 08:07:38;;;;;;;;;;;;;;;32.38;32.56;99342.25;4398068;32;39079;-89
2022/08/27 08:10:06;;;;;;;;;;;;;;;32.68;32.43;99344.25;4391869;32;38828;-90
2022/08/27 08:12:34;;;;;;;;;;;;;;;32.61;31.64;99348.41;4377511;32;39413;-91
2022/08/27 08:15:02;;;;;;;;;;;;;;;32.90;30.10;99345.97;4377417;32;36644;-87
2022/08/27 08:17:31;;;;;;;;;;;;;;;33.08;29.98;99344.44;4404583;32;38777;-89
2022/08/27 08:19:58;;;;;;;;;;;;;;;33.09;29.32;99351.50;4415202;32;38155;-85
2022/08/27 08:22:46;;;;;;;;;;;;;;;33.31;29.87;99352.31;4399437;32;39623;-84
2022/08/27 08:25:14;;;;;;;;;;;;;;;33.06;29.03;99353.59;4410747;32;36981;-85
2022/08/27 08:27:41;;;;;;;;;;;;;;;33.34;31.75;99352.94;4415997;32;38063;-89
2022/08/27 08:30:09;;;;;;;;;;;;;;;33.42;30.30;99346.06;4415100;32;38244;-84
2022/08/27 08:32:37;;;;;;;;;;;;;;;33.69;30.31;99350.84;4387232;32;39323;-85
2022/08/27 08:35:05;;;;;;;;;;;;;;;33.34;28.69;99352.94;4399988;32;38069;-85
2022/08/27 08:37:32;;;;;;;;;;;;;;;33.74;31.25;99348.62;4386643;32;39208;-86
2022/08/27 08:39:59;;;;;;;;;;;;;;;33.96;30.62;99352.94;4401214;32;38284;-86
2022/08/27 08:42:28;;;;;;;;;;;;;;;33.89;28.87;99357.12;4408601;32;39567;-86
2022/08/27 08:44:56;;;;;;;;;;;;;;;33.68;31.09;99355.38;4399532;32;36931;-83
2022/08/27 08:47:25;;;;;;;;;;;;;;;33.45;29.94;99349.31;4395042;32;39470;-83
2022/08/27 08:49:56;;;;;;;;;;;;;;;33.46;28.76;99350.16;4394079;32;37627;-82
2022/08/27 08:52:26;;;;;;;;;;;;;;;33.72;30.51;99353.28;4407750;32;38984;-82
2022/08/27 08:55:00;;;;;;;;;;;;;;;33.95;28.85;99351.22;4403061;32;37065;-82
2022/08/27 08:57:29;;;;;;;;;;;;;;;33.96;29.63;99348.41;4409937;32;38290;-84
2022/08/27 09:00:01;;;;;;;;;;;;;;;34.09;29.55;99348.22;4391876;32;39082;-89
2022/08/27 09:02:28;;;;;;;;;;;;;;;34.36;29.00;99357.44;4408128;32;38874;-84
2022/08/27 09:04:56;;;;;;;;;;;;;;;34.37;28.89;99351.09;4410726;32;38370;-83
2022/08/27 09:07:29;;;;;;;;;;;;;;;34.14;29.58;99354.03;4411242;32;37928;-84
2022/08/27 09:10:04;;;;;;;;;;;;;;;34.43;27.31;99348.69;4395631;32;37109;-84
2022/08/27 09:12:32;;;;;;;;;;;;;;;34.56;27.66;99351.16;4400763;32;37789;-83
2022/08/27 09:15:00;;;;;;;;;;;;;;;34.48;28.95;99343.72;4408821;32;36475;-83
2022/08/27 09:17:31;;;;;;;;;;;;;;;34.45;26.53;99349.38;4400577;32;39032;-85
2022/08/27 09:19:58;;;;;;;;;;;;;;;34.82;26.11;99339.81;4410085;32;38871;-84
2022/08/27 09:22:47;;;;;;;;;;;;;;;34.53;27.66;99340.66;4402193;32;38148;-88
2022/08/27 09:25:20;;;;;;;;;;;;;;;34.78;27.70;99333.00;4406959;32;36469;-88
2022/08/27 09:27:52;;;;;;;;;;;;;;;35.04;27.25;99334.16;4403432;32;37905;-80
2022/08/27 09:30:23;;;;;;;;;;;;;;;35.04;27.40;99338.69;4411961;32;39841;-81
2022/08/27 09:32:59;;;;;;;;;;;;;;;35.05;26.32;99337.69;4415107;32;38396;-80
2022/08/27 09:35:28;;;;;;;;;;;;;;;34.98;24.86;99333.84;4405532;32;36379;-83
2022/08/27 09:37:56;;;;;;;;;;;;;;;34.48;27.99;99332.13;4414215;32;39089;-82
2022/08/27 09:40:28;;;;;;;;;;;;;;;34.12;29.82;99326.44;4393135;32;39342;-82
2022/08/27 09:42:56;;;;;;;;;;;;;;;34.54;25.75;99320.84;4398162;32;38808;-82
2022/08/27 09:45:25;;;;;;;;;;;;;;;34.57;27.41;99336.69;4398249;32;37617;-82
2022/08/27 09:47:52;;;;;;;;;;;;;;;34.59;27.56;99323.97;4385058;32;38032;-81
2022/08/27 09:50:21;;;;;;;;;;;;;;;34.49;24.65;99329.31;4406454;32;39282;-81
2022/08/27 09:52:53;;;;;;;;;;;;;;;34.82;23.92;99329.06;4408967;32;39619;-82
2022/08/27 09:55:33;;;;;;;;;;;;;;;34.74;22.62;99328.91;4405803;32;37076;-81
2022/08/27 09:58:02;;;;;;;;;;;;;;;34.40;29.74;99329.31;4399478;32;38275;-81
2022/08/27 10:00:35;;;;;;;;;;;;;;;34.26;23.33;99323.34;4389786;32;37706;-80
2022/08/27 10:03:03;;;;;;;;;;;;;;;34.58;27.89;99322.25;4400443;32;38732;-82
2022/08/27 10:05:35;;;;;;;;;;;;;;;34.02;25.33;99320.22;4407213;32;37393;-82
2022/08/27 10:08:18;;;;;;;;;;;;;;;34.20;25.53;99323.88;4407939;32;37667;-81
2022/08/27 10:10:57;;;;;;;;;;;;;;;34.27;26.05;99318.84;4385981;32;37950;-81
2022/08/27 10:13:33;;;;;;;;;;;;;;;34.54;23.19;99320.84;4393586;32;38515;-81
2022/08/27 10:16:28;;;;;;;;;;;;;;;34.85;23.89;99321.56;4400706;32;36246;-82
2022/08/27 10:19:01;;;;;;;;;;;;;;;34.37;22.17;99318.84;4392655;32;38132;-82
2022/08/27 10:21:40;;;;;;;;;;;;;;;35.05;21.72;99317.00;4403785;32;38110;-82
2022/08/27 10:24:27;;;;;;;;;;;;;;;34.98;24.12;99321.25;4386326;32;39595;-81
2022/08/27 10:27:14;;;;;;;;;;;;;;;34.97;22.78;99327.59;4400503;32;36555;-82
2022/08/27 10:29:45;;;;;;;;;;;;;;;35.17;23.70;99325.78;4406289;32;38853;-81
2022/08/27 10:32:32;;;;;;;;;;;;;;;35.50;23.48;99324.38;4407132;32;38780;-82
2022/08/27 10:35:03;;;;;;;;;;;;;;;35.55;20.45;99316.75;4414763;32;39201;-80
2022/08/27 10:37:30;;;;;;;;;;;;;;;35.55;20.77;99322.16;4411004;32;36606;-82
2022/08/27 10:40:15;;;;;;;;;;;;;;;35.81;20.74;99319.59;4409109;32;39085;-80
2022/08/27 10:42:55;;;;;;;;;;;;;;;35.99;20.49;99319.62;4401038;32;38097;-82
2022/08/27 10:45:33;;;;;;;;;;;;;;;35.89;20.49;99318.84;4414371;32;38389;-81
2022/08/27 10:48:05;;;;;;;;;;;;;;;36.01;21.50;99317.66;4411333;32;38330;-80
2022/08/27 10:50:33;;;;;;;;;;;;;;;35.95;21.15;99312.84;4411841;32;37938;-79
2022/08/27 10:53:10;;;;;;;;;;;;;;;35.65;23.34;99310.47;4410325;32;39042;-80
2022/08/27 10:55:42;;;;;;;;;;;;;;;35.71;19.86;99310.72;4396413;32;38349;-80
2022/08/27 10:58:27;;;;;;;;;;;;;;;36.11;22.38;99311.38;4400873;32;36749;-81
2022/08/27 11:00:57;;;;;;;;;;;;;;;36.08;21.50;99307.97;4414645;32;38096;-80
2022/08/27 11:03:24;;;;;;;;;;;;;;;36.27;22.94;99306.16;4391284;32;37649;-82
2022/08/27 11:06:02;;;;;;;;;;;;;;;36.16;25.79;99309.09;4398834;32;40111;-80
2022/08/27 11:08:43;;;;;;;;;;;;;;;36.35;22.87;99302.72;4400750;32;37494;-80
2022/08/27 11:11:12;;;;;;;;;;;;;;;36.57;21.14;99306.78;4391777;32;38973;-81
2022/08/27 11:13:59;;;;;;;;;;;;;;;36.04;23.91;99301.22;4387274;32;39691;-81
2022/08/27 11:16:41;;;;;;;;;;;;;;;36.27;23.84;99303.47;4385075;32;39181;-81
2022/08/27 11:19:14;;;;;;;;;;;;;;;36.49;23.84;99296.75;4390964;32;36509;-81
2022/08/27 11:21:41;;;;;;;;;;;;;;;36.63;22.12;99290.00;4400157;32;37988;-81
2022/08/27 11:24:11;;;;;;;;;;;;;;;36.66;22.58;99289.69;4404822;32;38021;-80
2022/08/27 11:26:38;;;;;;;;;;;;;;;36.59;22.57;99294.00;4414450;32;38891;-79
2022/08/27 11:29:20;;;;;;;;;;;;;;;36.73;24.31;99296.16;4393855;32;36714;-78
2022/08/27 11:32:00;;;;;;;;;;;;;;;36.58;24.10;99289.63;4399727;32;38319;-81
2022/08/27 11:34:39;;;;;;;;;;;;;;;36.35;22.95;99295.47;4410390;32;38441;-79
2022/08/27 11:37:26;;;;;;;;;;;;;;;36.64;23.74;99286.31;4402402;32;39258;-81
2022/08/27 11:40:01;;;;;;;;;;;;;;;36.78;22.76;99283.03;4403373;32;37044;-79
2022/08/27 11:42:42;;;;;;;;;;;;;;;36.85;22.36;99284.09;4395249;32;38359;-81
2022/08/27 11:45:19;;;;;;;;;;;;;;;36.82;23.21;99280.88;4402205;32;38202;-80
2022/08/27 11:47:50;;;;;;;;;;;;;;;36.81;23.53;99282.72;4407151;32;38307;-80
2022/08/27 11:50:18;;;;;;;;;;;;;;;36.50;22.98;99285.00;4409520;32;37372;-81
2022/08/27 11:52:53;;;;;;;;;;;;;;;36.39;23.49;99271.75;4395202;32;37878;-81
2022/08/27 11:55:21;;;;;;;;;;;;;;;36.84;24.27;99277.03;4401960;32;38497;-80
2022/08/27 11:57:49;;;;;;;;;;;;;;;36.86;23.01;99264.22;4417096;32;39113;-81
2022/08/27 12:00:19;;;;;;;;;;;;;;;37.04;22.29;99261.50;4395150;32;36124;-80
2022/08/27 12:03:01;;;;;;;;;;;;;;;36.88;21.91;99266.75;4414470;32;37791;-82
2022/08/27 12:05:51;;;;;;;;;;;;;;;36.88;21.12;99262.19;4413060;32;39354;-82
2022/08/27 12:08:20;;;;;;;;;;;;;;;36.90;19.94;99260.19;4384453;32;37865;-84
2022/08/27 12:10:51;;;;;;;;;;;;;;;36.90;20.82;99254.81;4408613;32;36748;-82
2022/08/27 12:13:34;;;;;;;;;;;;;;;36.69;21.40;99251.63;4416064;32;37654;-82
2022/08/27 12:16:11;;;;;;;;;;;;;;;36.51;21.93;99252.50;4415590;32;37696;-82
2022/08/27 12:18:50;;;;;;;;;;;;;;;36.83;21.67;99248.34;4415255;32;39577;-82
2022/08/27 12:21:27;;;;;;;;;;;;;;;36.87;22.71;99249.72;4415400;32;36729;-81
2022/08/27 12:24:06;;;;;;;;;;;;;;;36.75;23.26;99242.88;4393631;32;39279;-82
2022/08/27 12:26:34;;;;;;;;;;;;;;;36.85;21.70;99240.94;4415814;32;38057;-82
2022/08/27 12:29:17;;;;;;;;;;;;;;;36.38;26.58;99235.84;4383723;32;38626;-82
2022/08/27 12:31:47;;;;;;;;;;;;;;;36.48;23.18;99242.00;4358137;32;859541;-82
2022/08/27 12:34:14;;;;;;;;;;;;;;;36.64;22.52;99233.22;4400149;32;38072;-82
2022/08/27 12:36:48;;;;;;;;;;;;;;;36.78;22.31;99234.47;4394942;32;38035;-82
2022/08/27 12:39:17;;;;;;;;;;;;;;;36.74;22.40;99238.50;4391138;32;38739;-82
2022/08/27 12:41:45;;;;;;;;;;;;;;;36.90;22.63;99226.97;4389788;32;36717;-82
2022/08/27 12:44:14;;;;;;;;;;;;;;;36.84;24.88;99223.06;4397103;32;37900;-85
2022/08/27 12:46:52;;;;;;;;;;;;;;;36.63;22.51;99217.19;4391773;32;38064;-82
2022/08/27 12:49:20;;;;;;;;;;;;;;;36.93;22.33;99215.87;4382628;32;40208;-84
2022/08/27 12:52:12;;;;;;;;;;;;;;;36.98;21.96;99219.81;4380262;32;36828;-81
2022/08/27 12:55:07;;;;;;;;;;;;;;;36.85;22.23;99211.25;4370826;32;36894;-82
2022/08/27 12:57:44;;;;;;;;;;;;;;;36.98;21.85;99218.94;4382566;32;39029;-83
2022/08/27 13:00:17;;;;;;;;;;;;;;;37.03;22.13;99210.41;4385218;32;38885;-83
2022/08/27 13:03:05;;;;;;;;;;;;;;;36.85;22.76;99208.56;4390538;32;38198;-80
2022/08/27 13:05:44;;;;;;;;;;;;;;;36.96;22.39;99211.00;4385884;32;37988;-81
2022/08/27 13:08:22;;;;;;;;;;;;;;;36.97;22.89;99209.97;4395891;32;38331;-82